sensor_id;sensor_type;location;lat;lon;timestamp;temperature;humidity
76789;DHT22;65740;52.464;13.446;2022-12-29T00:02:09;17.10;46.10
76789;DHT22;65740;52.464;13.446;2022-12-29T00:04:35;17.20;46.20
76789;DHT22;65740;52.464;13.446;2022-12-29T00:07:00;17.10;46.10
76789;DHT22;65740;52.464;13.446;2022-12-29T00:09:26;17.10;46.20
76789;DHT22;65740;52.464;13.446;2022-12-29T00:11:52;17.10;46.10
76789;DHT22;65740;52.464;13.446;2022-12-29T00:14:18;17.10;46.20
76789;DHT22;65740;52.464;13.446;2022-12-29T00:17:03;17.10;46.10
76789;DHT22;65740;52.464;13.446;2022-12-29T00:19:28;17.10;46.10
76789;DHT22;65740;52.464;13.446;2022-12-29T00:22:13;17.10;46.20
76789;DHT22;65740;52.464;13.446;2022-12-29T00:24:58;17.10;46.90
76789;DHT22;65740;52.464;13.446;2022-12-29T00:27:31;17.10;46.20
76789;DHT22;65740;52.464;13.446;2022-12-29T00:30:18;17.10;46.20
76789;DHT22;65740;52.464;13.446;2022-12-29T00:33:29;17.10;46.20
76789;DHT22;65740;52.464;13.446;2022-12-29T00:36:46;17.10;46.20
76789;DHT22;65740;52.464;13.446;2022-12-29T00:39:14;17.10;46.20
76789;DHT22;65740;52.464;13.446;2022-12-29T00:42:05;17.10;46.20
76789;DHT22;65740;52.464;13.446;2022-12-29T00:45:03;17.10;46.20
76789;DHT22;65740;52.464;13.446;2022-12-29T00:47:28;17.10;46.20
76789;DHT22;65740;52.464;13.446;2022-12-29T00:49:54;17.10;46.20
76789;DHT22;65740;52.464;13.446;2022-12-29T00:52:19;17.10;46.20
76789;DHT22;65740;52.464;13.446;2022-12-29T00:54:45;17.10;46.20
76789;DHT22;65740;52.464;13.446;2022-12-29T00:57:11;17.10;46.20
76789;DHT22;65740;52.464;13.446;2022-12-29T00:59:41;17.10;46.20
76789;DHT22;65740;52.464;13.446;2022-12-29T01:02:08;17.10;46.20
76789;DHT22;65740;52.464;13.446;2022-12-29T01:04:34;17.10;46.20
76789;DHT22;65740;52.464;13.446;2022-12-29T01:07:00;17.10;46.20
76789;DHT22;65740;52.464;13.446;2022-12-29T01:09:26;17.10;46.20
76789;DHT22;65740;52.464;13.446;2022-12-29T01:12:10;17.10;46.20
76789;DHT22;65740;52.464;13.446;2022-12-29T01:14:36;17.10;46.20
76789;DHT22;65740;52.464;13.446;2022-12-29T01:17:01;17.10;46.20
76789;DHT22;65740;52.464;13.446;2022-12-29T01:19:27;17.10;46.20
76789;DHT22;65740;52.464;13.446;2022-12-29T01:21:53;17.00;46.20
76789;DHT22;65740;52.464;13.446;2022-12-29T01:24:19;17.00;46.10
76789;DHT22;65740;52.464;13.446;2022-12-29T01:26:46;17.00;46.20
76789;DHT22;65740;52.464;13.446;2022-12-29T01:29:12;17.10;46.30
76789;DHT22;65740;52.464;13.446;2022-12-29T01:31:38;17.10;46.20
76789;DHT22;65740;52.464;13.446;2022-12-29T01:34:04;17.10;46.30
76789;DHT22;65740;52.464;13.446;2022-12-29T01:36:30;17.00;46.20
76789;DHT22;65740;52.464;13.446;2022-12-29T01:38:56;17.10;46.20
76789;DHT22;65740;52.464;13.446;2022-12-29T01:41:21;17.00;46.20
76789;DHT22;65740;52.464;13.446;2022-12-29T01:49:20;17.00;46.20
76789;DHT22;65740;52.464;13.446;2022-12-29T01:52:06;17.10;46.20
76789;DHT22;65740;52.464;13.446;2022-12-29T01:54:38;17.00;46.20
76789;DHT22;65740;52.464;13.446;2022-12-29T01:57:09;17.00;46.20
76789;DHT22;65740;52.464;13.446;2022-12-29T01:59:40;17.00;46.20
76789;DHT22;65740;52.464;13.446;2022-12-29T02:02:07;17.00;46.20
76789;DHT22;65740;52.464;13.446;2022-12-29T02:04:33;17.10;46.20
76789;DHT22;65740;52.464;13.446;2022-12-29T02:07:02;17.00;46.20
76789;DHT22;65740;52.464;13.446;2022-12-29T02:09:29;17.00;46.20
76789;DHT22;65740;52.464;13.446;2022-12-29T02:11:56;17.00;46.20
76789;DHT22;65740;52.464;13.446;2022-12-29T02:14:22;17.00;46.20
76789;DHT22;65740;52.464;13.446;2022-12-29T02:30:51;17.00;46.20
76789;DHT22;65740;52.464;13.446;2022-12-29T02:41:22;17.00;46.20
76789;DHT22;65740;52.464;13.446;2022-12-29T02:49:32;17.00;46.20
76789;DHT22;65740;52.464;13.446;2022-12-29T02:52:03;17.10;46.20
76789;DHT22;65740;52.464;13.446;2022-12-29T02:54:31;17.00;46.10
76789;DHT22;65740;52.464;13.446;2022-12-29T02:57:30;17.10;46.20
76789;DHT22;65740;52.464;13.446;2022-12-29T03:02:46;17.10;46.20
76789;DHT22;65740;52.464;13.446;2022-12-29T03:11:02;17.10;46.10
76789;DHT22;65740;52.464;13.446;2022-12-29T03:13:49;17.10;46.10
76789;DHT22;65740;52.464;13.446;2022-12-29T03:16:46;17.10;46.10
76789;DHT22;65740;52.464;13.446;2022-12-29T03:19:32;17.10;46.10
76789;DHT22;65740;52.464;13.446;2022-12-29T03:24:51;17.20;46.20
76789;DHT22;65740;52.464;13.446;2022-12-29T03:27:21;17.10;46.10
76789;DHT22;65740;52.464;13.446;2022-12-29T03:29:55;17.20;46.10
76789;DHT22;65740;52.464;13.446;2022-12-29T03:32:26;17.20;46.10
76789;DHT22;65740;52.464;13.446;2022-12-29T03:34:54;17.20;46.10
76789;DHT22;65740;52.464;13.446;2022-12-29T03:37:28;17.10;46.10
76789;DHT22;65740;52.464;13.446;2022-12-29T03:39:56;17.10;46.00
76789;DHT22;65740;52.464;13.446;2022-12-29T03:42:25;17.10;46.00
76789;DHT22;65740;52.464;13.446;2022-12-29T03:44:54;17.20;46.10
76789;DHT22;65740;52.464;13.446;2022-12-29T03:47:24;17.20;46.00
76789;DHT22;65740;52.464;13.446;2022-12-29T03:49:51;17.20;46.10
76789;DHT22;65740;52.464;13.446;2022-12-29T03:52:17;17.10;46.10
76789;DHT22;65740;52.464;13.446;2022-12-29T03:54:42;17.10;46.00
76789;DHT22;65740;52.464;13.446;2022-12-29T03:57:09;17.10;46.10
76789;DHT22;65740;52.464;13.446;2022-12-29T03:59:35;17.10;46.10
76789;DHT22;65740;52.464;13.446;2022-12-29T04:02:01;17.10;46.10
76789;DHT22;65740;52.464;13.446;2022-12-29T04:04:26;17.10;46.10
76789;DHT22;65740;52.464;13.446;2022-12-29T04:06:52;17.10;46.10
76789;DHT22;65740;52.464;13.446;2022-12-29T04:09:18;17.10;46.20
76789;DHT22;65740;52.464;13.446;2022-12-29T04:11:43;17.10;46.10
76789;DHT22;65740;52.464;13.446;2022-12-29T04:14:09;17.10;46.40
76789;DHT22;65740;52.464;13.446;2022-12-29T04:16:34;17.10;46.10
76789;DHT22;65740;52.464;13.446;2022-12-29T04:19:05;17.10;46.10
76789;DHT22;65740;52.464;13.446;2022-12-29T04:21:30;17.10;46.10
76789;DHT22;65740;52.464;13.446;2022-12-29T04:23:56;17.10;46.20
76789;DHT22;65740;52.464;13.446;2022-12-29T04:26:22;17.10;46.10
76789;DHT22;65740;52.464;13.446;2022-12-29T04:28:47;17.10;46.10
76789;DHT22;65740;52.464;13.446;2022-12-29T04:31:13;17.10;46.10
76789;DHT22;65740;52.464;13.446;2022-12-29T04:33:38;17.10;46.20
76789;DHT22;65740;52.464;13.446;2022-12-29T04:36:04;17.20;46.30
76789;DHT22;65740;52.464;13.446;2022-12-29T04:38:30;17.10;46.10
76789;DHT22;65740;52.464;13.446;2022-12-29T04:40:59;17.10;46.20
76789;DHT22;65740;52.464;13.446;2022-12-29T04:43:24;17.20;46.90
76789;DHT22;65740;52.464;13.446;2022-12-29T04:45:50;17.20;46.20
76789;DHT22;65740;52.464;13.446;2022-12-29T04:48:15;17.20;46.20
76789;DHT22;65740;52.464;13.446;2022-12-29T04:50:41;17.10;46.20
76789;DHT22;65740;52.464;13.446;2022-12-29T04:53:08;17.20;46.30
76789;DHT22;65740;52.464;13.446;2022-12-29T04:55:33;17.20;46.30
76789;DHT22;65740;52.464;13.446;2022-12-29T04:57:59;17.10;46.20
76789;DHT22;65740;52.464;13.446;2022-12-29T05:00:25;17.10;46.20
76789;DHT22;65740;52.464;13.446;2022-12-29T05:02:51;17.10;46.20
76789;DHT22;65740;52.464;13.446;2022-12-29T05:05:17;17.20;46.20
76789;DHT22;65740;52.464;13.446;2022-12-29T05:07:43;17.10;46.20
76789;DHT22;65740;52.464;13.446;2022-12-29T05:10:09;17.10;46.20
76789;DHT22;65740;52.464;13.446;2022-12-29T05:12:36;17.10;46.20
76789;DHT22;65740;52.464;13.446;2022-12-29T05:15:02;17.10;46.20
76789;DHT22;65740;52.464;13.446;2022-12-29T05:17:29;17.10;46.20
76789;DHT22;65740;52.464;13.446;2022-12-29T05:19:54;17.10;46.20
76789;DHT22;65740;52.464;13.446;2022-12-29T05:22:20;17.10;46.10
76789;DHT22;65740;52.464;13.446;2022-12-29T05:24:46;17.10;46.20
76789;DHT22;65740;52.464;13.446;2022-12-29T05:27:11;17.20;46.20
76789;DHT22;65740;52.464;13.446;2022-12-29T05:29:37;17.20;46.20
76789;DHT22;65740;52.464;13.446;2022-12-29T05:32:03;17.10;46.10
76789;DHT22;65740;52.464;13.446;2022-12-29T05:34:28;17.20;46.20
76789;DHT22;65740;52.464;13.446;2022-12-29T05:36:54;17.20;46.10
76789;DHT22;65740;52.464;13.446;2022-12-29T05:39:20;17.20;46.10
76789;DHT22;65740;52.464;13.446;2022-12-29T05:41:45;17.20;46.20
76789;DHT22;65740;52.464;13.446;2022-12-29T05:44:11;17.20;46.10
76789;DHT22;65740;52.464;13.446;2022-12-29T05:46:37;17.20;46.10
76789;DHT22;65740;52.464;13.446;2022-12-29T05:49:03;17.20;46.10
76789;DHT22;65740;52.464;13.446;2022-12-29T05:51:28;17.20;46.10
76789;DHT22;65740;52.464;13.446;2022-12-29T05:53:54;17.20;46.80
76789;DHT22;65740;52.464;13.446;2022-12-29T05:56:20;17.20;46.10
76789;DHT22;65740;52.464;13.446;2022-12-29T05:58:46;17.20;46.10
76789;DHT22;65740;52.464;13.446;2022-12-29T06:01:11;17.20;46.10
76789;DHT22;65740;52.464;13.446;2022-12-29T06:03:37;17.20;46.10
76789;DHT22;65740;52.464;13.446;2022-12-29T06:06:03;17.20;46.10
76789;DHT22;65740;52.464;13.446;2022-12-29T06:08:28;17.20;46.10
76789;DHT22;65740;52.464;13.446;2022-12-29T06:10:54;17.30;46.20
76789;DHT22;65740;52.464;13.446;2022-12-29T06:13:20;17.20;46.20
76789;DHT22;65740;52.464;13.446;2022-12-29T06:15:48;17.20;46.20
76789;DHT22;65740;52.464;13.446;2022-12-29T06:18:14;17.20;46.20
76789;DHT22;65740;52.464;13.446;2022-12-29T06:20:39;17.20;46.20
76789;DHT22;65740;52.464;13.446;2022-12-29T06:23:05;17.20;46.20
76789;DHT22;65740;52.464;13.446;2022-12-29T06:25:31;17.20;46.20
76789;DHT22;65740;52.464;13.446;2022-12-29T06:27:58;17.20;46.30
76789;DHT22;65740;52.464;13.446;2022-12-29T06:30:24;17.20;46.30
76789;DHT22;65740;52.464;13.446;2022-12-29T06:32:50;17.20;46.30
76789;DHT22;65740;52.464;13.446;2022-12-29T06:35:16;17.20;46.20
76789;DHT22;65740;52.464;13.446;2022-12-29T06:37:42;17.20;46.30
76789;DHT22;65740;52.464;13.446;2022-12-29T06:40:09;17.20;47.00
76789;DHT22;65740;52.464;13.446;2022-12-29T06:42:34;17.20;46.30
76789;DHT22;65740;52.464;13.446;2022-12-29T06:45:00;17.20;46.30
76789;DHT22;65740;52.464;13.446;2022-12-29T06:47:26;17.20;46.30
76789;DHT22;65740;52.464;13.446;2022-12-29T06:49:52;17.20;46.30
76789;DHT22;65740;52.464;13.446;2022-12-29T06:52:17;17.20;46.30
76789;DHT22;65740;52.464;13.446;2022-12-29T06:54:43;17.20;46.30
76789;DHT22;65740;52.464;13.446;2022-12-29T06:57:09;17.20;46.30
76789;DHT22;65740;52.464;13.446;2022-12-29T06:59:34;17.20;46.30
76789;DHT22;65740;52.464;13.446;2022-12-29T07:02:00;17.20;46.40
76789;DHT22;65740;52.464;13.446;2022-12-29T07:04:27;17.20;46.30
76789;DHT22;65740;52.464;13.446;2022-12-29T07:06:53;17.20;46.20
76789;DHT22;65740;52.464;13.446;2022-12-29T07:09:19;17.20;46.30
76789;DHT22;65740;52.464;13.446;2022-12-29T07:11:44;17.20;46.30
76789;DHT22;65740;52.464;13.446;2022-12-29T07:14:11;17.30;46.40
76789;DHT22;65740;52.464;13.446;2022-12-29T07:16:36;17.30;46.30
76789;DHT22;65740;52.464;13.446;2022-12-29T07:19:02;17.30;46.30
76789;DHT22;65740;52.464;13.446;2022-12-29T07:21:28;17.30;46.30
76789;DHT22;65740;52.464;13.446;2022-12-29T07:23:54;17.30;46.40
76789;DHT22;65740;52.464;13.446;2022-12-29T07:26:20;17.20;46.30
76789;DHT22;65740;52.464;13.446;2022-12-29T07:28:45;17.30;46.40
76789;DHT22;65740;52.464;13.446;2022-12-29T07:31:17;17.30;46.40
76789;DHT22;65740;52.464;13.446;2022-12-29T07:33:43;17.30;46.40
76789;DHT22;65740;52.464;13.446;2022-12-29T07:36:09;17.30;46.40
76789;DHT22;65740;52.464;13.446;2022-12-29T07:38:35;17.30;46.40
76789;DHT22;65740;52.464;13.446;2022-12-29T07:41:01;17.30;46.40
76789;DHT22;65740;52.464;13.446;2022-12-29T07:43:27;17.30;46.40
76789;DHT22;65740;52.464;13.446;2022-12-29T07:45:53;17.30;46.50
76789;DHT22;65740;52.464;13.446;2022-12-29T07:48:18;17.20;46.30
76789;DHT22;65740;52.464;13.446;2022-12-29T07:50:44;17.20;46.40
76789;DHT22;65740;52.464;13.446;2022-12-29T07:53:10;17.30;46.50
76789;DHT22;65740;52.464;13.446;2022-12-29T07:55:35;17.20;46.50
76789;DHT22;65740;52.464;13.446;2022-12-29T07:58:01;17.20;46.50
76789;DHT22;65740;52.464;13.446;2022-12-29T08:00:27;17.20;46.40
76789;DHT22;65740;52.464;13.446;2022-12-29T08:02:52;17.20;46.40
76789;DHT22;65740;52.464;13.446;2022-12-29T08:05:18;17.20;46.50
76789;DHT22;65740;52.464;13.446;2022-12-29T08:07:44;17.20;46.40
76789;DHT22;65740;52.464;13.446;2022-12-29T08:10:11;17.20;46.40
76789;DHT22;65740;52.464;13.446;2022-12-29T08:12:41;17.20;46.40
76789;DHT22;65740;52.464;13.446;2022-12-29T08:15:08;17.20;46.40
76789;DHT22;65740;52.464;13.446;2022-12-29T08:17:34;17.20;46.40
76789;DHT22;65740;52.464;13.446;2022-12-29T08:19:59;17.20;46.40
76789;DHT22;65740;52.464;13.446;2022-12-29T08:22:25;17.20;46.40
76789;DHT22;65740;52.464;13.446;2022-12-29T08:24:51;17.20;46.40
76789;DHT22;65740;52.464;13.446;2022-12-29T08:27:17;17.20;46.40
76789;DHT22;65740;52.464;13.446;2022-12-29T08:29:43;17.30;46.50
76789;DHT22;65740;52.464;13.446;2022-12-29T08:32:08;17.30;46.50
76789;DHT22;65740;52.464;13.446;2022-12-29T08:34:34;17.30;46.50
76789;DHT22;65740;52.464;13.446;2022-12-29T08:36:59;17.30;46.50
76789;DHT22;65740;52.464;13.446;2022-12-29T08:39:25;17.30;46.50
76789;DHT22;65740;52.464;13.446;2022-12-29T08:41:50;17.30;46.50
76789;DHT22;65740;52.464;13.446;2022-12-29T08:44:16;17.30;46.50
76789;DHT22;65740;52.464;13.446;2022-12-29T08:46:42;17.30;46.50
76789;DHT22;65740;52.464;13.446;2022-12-29T08:49:08;17.30;46.50
76789;DHT22;65740;52.464;13.446;2022-12-29T08:51:33;17.30;46.50
76789;DHT22;65740;52.464;13.446;2022-12-29T08:54:00;17.30;46.50
76789;DHT22;65740;52.464;13.446;2022-12-29T08:56:26;17.30;46.50
76789;DHT22;65740;52.464;13.446;2022-12-29T08:58:52;17.30;46.50
76789;DHT22;65740;52.464;13.446;2022-12-29T09:01:19;17.30;46.50
76789;DHT22;65740;52.464;13.446;2022-12-29T09:03:46;17.30;46.60
76789;DHT22;65740;52.464;13.446;2022-12-29T09:06:12;17.30;47.20
76789;DHT22;65740;52.464;13.446;2022-12-29T09:08:37;17.30;46.50
76789;DHT22;65740;52.464;13.446;2022-12-29T09:11:18;17.30;46.50
76789;DHT22;65740;52.464;13.446;2022-12-29T09:13:44;17.30;46.60
76789;DHT22;65740;52.464;13.446;2022-12-29T09:16:09;17.30;46.60
76789;DHT22;65740;52.464;13.446;2022-12-29T09:18:35;17.30;46.60
76789;DHT22;65740;52.464;13.446;2022-12-29T09:21:03;17.30;46.60
76789;DHT22;65740;52.464;13.446;2022-12-29T09:23:30;17.30;46.70
76789;DHT22;65740;52.464;13.446;2022-12-29T09:25:56;17.30;46.60
76789;DHT22;65740;52.464;13.446;2022-12-29T09:28:22;17.30;46.60
76789;DHT22;65740;52.464;13.446;2022-12-29T09:30:48;17.30;46.60
76789;DHT22;65740;52.464;13.446;2022-12-29T09:33:14;17.30;46.60
76789;DHT22;65740;52.464;13.446;2022-12-29T09:35:43;17.30;46.60
76789;DHT22;65740;52.464;13.446;2022-12-29T09:38:09;17.40;46.70
76789;DHT22;65740;52.464;13.446;2022-12-29T09:40:36;17.30;47.30
76789;DHT22;65740;52.464;13.446;2022-12-29T09:43:24;17.30;46.60
76789;DHT22;65740;52.464;13.446;2022-12-29T09:48:34;17.30;46.60
76789;DHT22;65740;52.464;13.446;2022-12-29T09:51:03;17.30;46.70
76789;DHT22;65740;52.464;13.446;2022-12-29T09:53:38;17.40;46.80
76789;DHT22;65740;52.464;13.446;2022-12-29T09:56:05;17.40;47.40
76789;DHT22;65740;52.464;13.446;2022-12-29T09:58:45;17.40;46.70
76789;DHT22;65740;52.464;13.446;2022-12-29T10:01:27;17.40;46.80
76789;DHT22;65740;52.464;13.446;2022-12-29T10:03:58;17.40;46.80
76789;DHT22;65740;52.464;13.446;2022-12-29T10:11:31;17.40;46.80
76789;DHT22;65740;52.464;13.446;2022-12-29T10:16:52;17.40;46.80
76789;DHT22;65740;52.464;13.446;2022-12-29T10:24:25;17.40;46.80
76789;DHT22;65740;52.464;13.446;2022-12-29T10:26:52;17.40;46.80
76789;DHT22;65740;52.464;13.446;2022-12-29T10:29:23;17.40;46.80
76789;DHT22;65740;52.464;13.446;2022-12-29T10:32:00;17.40;46.80
76789;DHT22;65740;52.464;13.446;2022-12-29T10:34:34;17.50;47.60
76789;DHT22;65740;52.464;13.446;2022-12-29T10:39:52;17.40;47.00
76789;DHT22;65740;52.464;13.446;2022-12-29T10:42:31;17.40;46.90
76789;DHT22;65740;52.464;13.446;2022-12-29T10:44:59;17.50;47.00
76789;DHT22;65740;52.464;13.446;2022-12-29T10:47:28;17.50;47.00
76789;DHT22;65740;52.464;13.446;2022-12-29T10:49:55;17.40;47.00
76789;DHT22;65740;52.464;13.446;2022-12-29T10:52:24;17.50;47.10
76789;DHT22;65740;52.464;13.446;2022-12-29T10:55:04;17.50;47.10
76789;DHT22;65740;52.464;13.446;2022-12-29T10:57:36;17.50;47.10
76789;DHT22;65740;52.464;13.446;2022-12-29T11:00:23;17.50;47.00
76789;DHT22;65740;52.464;13.446;2022-12-29T11:03:20;17.50;47.10
76789;DHT22;65740;52.464;13.446;2022-12-29T11:06:01;17.50;47.10
76789;DHT22;65740;52.464;13.446;2022-12-29T11:08:33;17.50;47.10
76789;DHT22;65740;52.464;13.446;2022-12-29T11:11:06;17.50;47.20
76789;DHT22;65740;52.464;13.446;2022-12-29T11:13:35;17.50;47.20
76789;DHT22;65740;52.464;13.446;2022-12-29T11:16:11;17.50;47.30
76789;DHT22;65740;52.464;13.446;2022-12-29T11:18:38;17.50;47.30
76789;DHT22;65740;52.464;13.446;2022-12-29T11:26:24;17.50;47.30
76789;DHT22;65740;52.464;13.446;2022-12-29T11:31:46;17.50;47.20
76789;DHT22;65740;52.464;13.446;2022-12-29T11:34:38;17.50;47.30
76789;DHT22;65740;52.464;13.446;2022-12-29T11:42:05;17.50;47.30
76789;DHT22;65740;52.464;13.446;2022-12-29T11:44:37;17.50;47.40
76789;DHT22;65740;52.464;13.446;2022-12-29T11:47:11;17.50;47.30
76789;DHT22;65740;52.464;13.446;2022-12-29T11:49:38;17.60;47.40
76789;DHT22;65740;52.464;13.446;2022-12-29T11:52:04;17.50;47.40
76789;DHT22;65740;52.464;13.446;2022-12-29T11:54:33;17.60;47.60
76789;DHT22;65740;52.464;13.446;2022-12-29T11:57:10;17.60;47.50
76789;DHT22;65740;52.464;13.446;2022-12-29T12:05:31;17.60;47.70
76789;DHT22;65740;52.464;13.446;2022-12-29T12:10:55;17.60;47.70
76789;DHT22;65740;52.464;13.446;2022-12-29T12:13:31;17.60;47.80
76789;DHT22;65740;52.464;13.446;2022-12-29T12:16:15;17.60;47.80
76789;DHT22;65740;52.464;13.446;2022-12-29T12:18:45;17.60;47.80
76789;DHT22;65740;52.464;13.446;2022-12-29T12:21:27;17.60;47.80
76789;DHT22;65740;52.464;13.446;2022-12-29T12:27:04;17.60;47.90
76789;DHT22;65740;52.464;13.446;2022-12-29T12:32:17;17.60;48.30
76789;DHT22;65740;52.464;13.446;2022-12-29T12:34:46;17.60;49.00
76789;DHT22;65740;52.464;13.446;2022-12-29T12:53:51;17.60;48.50
76789;DHT22;65740;52.464;13.446;2022-12-29T13:01:46;17.70;48.60
76789;DHT22;65740;52.464;13.446;2022-12-29T13:07:13;17.70;48.90
76789;DHT22;65740;52.464;13.446;2022-12-29T13:17:55;17.70;48.60
76789;DHT22;65740;52.464;13.446;2022-12-29T13:20:34;17.80;48.70
76789;DHT22;65740;52.464;13.446;2022-12-29T13:31:15;17.80;48.80
76789;DHT22;65740;52.464;13.446;2022-12-29T13:36:58;17.80;49.00
76789;DHT22;65740;52.464;13.446;2022-12-29T13:39:30;17.80;48.90
76789;DHT22;65740;52.464;13.446;2022-12-29T13:41:57;17.80;48.80
76789;DHT22;65740;52.464;13.446;2022-12-29T13:44:34;17.80;48.80
76789;DHT22;65740;52.464;13.446;2022-12-29T13:47:18;17.80;48.90
76789;DHT22;65740;52.464;13.446;2022-12-29T13:49:47;17.80;49.00
76789;DHT22;65740;52.464;13.446;2022-12-29T13:52:36;17.80;49.00
76789;DHT22;65740;52.464;13.446;2022-12-29T14:00:25;17.90;49.30
76789;DHT22;65740;52.464;13.446;2022-12-29T14:06:21;17.90;49.20
76789;DHT22;65740;52.464;13.446;2022-12-29T14:08:50;17.90;49.20
76789;DHT22;65740;52.464;13.446;2022-12-29T14:11:17;17.90;49.80
76789;DHT22;65740;52.464;13.446;2022-12-29T14:13:46;17.90;49.30
76789;DHT22;65740;52.464;13.446;2022-12-29T14:16:33;17.80;49.20
76789;DHT22;65740;52.464;13.446;2022-12-29T14:19:21;17.80;49.20
76789;DHT22;65740;52.464;13.446;2022-12-29T14:22:00;17.80;49.20
76789;DHT22;65740;52.464;13.446;2022-12-29T14:32:35;17.80;49.20
76789;DHT22;65740;52.464;13.446;2022-12-29T14:35:40;17.90;49.20
76789;DHT22;65740;52.464;13.446;2022-12-29T14:38:17;17.90;49.20
76789;DHT22;65740;52.464;13.446;2022-12-29T14:40:43;17.90;49.20
76789;DHT22;65740;52.464;13.446;2022-12-29T14:43:25;17.90;49.90
76789;DHT22;65740;52.464;13.446;2022-12-29T14:45:57;17.90;49.30
76789;DHT22;65740;52.464;13.446;2022-12-29T14:50:57;17.90;49.20
76789;DHT22;65740;52.464;13.446;2022-12-29T14:53:43;17.90;49.20
76789;DHT22;65740;52.464;13.446;2022-12-29T14:56:11;17.90;49.30
76789;DHT22;65740;52.464;13.446;2022-12-29T14:59:02;17.90;49.20
76789;DHT22;65740;52.464;13.446;2022-12-29T15:01:47;17.90;49.20
76789;DHT22;65740;52.464;13.446;2022-12-29T15:04:18;17.90;49.30
76789;DHT22;65740;52.464;13.446;2022-12-29T15:06:45;17.90;49.30
76789;DHT22;65740;52.464;13.446;2022-12-29T15:11:52;17.90;49.30
76789;DHT22;65740;52.464;13.446;2022-12-29T15:14:36;17.90;49.20
76789;DHT22;65740;52.464;13.446;2022-12-29T15:19:48;17.90;49.30
76789;DHT22;65740;52.464;13.446;2022-12-29T15:22:14;17.90;49.30
76789;DHT22;65740;52.464;13.446;2022-12-29T15:24:43;17.90;49.30
76789;DHT22;65740;52.464;13.446;2022-12-29T15:27:20;17.90;49.30
76789;DHT22;65740;52.464;13.446;2022-12-29T15:29:46;17.90;49.30
76789;DHT22;65740;52.464;13.446;2022-12-29T15:34:44;17.90;49.30
76789;DHT22;65740;52.464;13.446;2022-12-29T15:37:32;17.80;49.30
76789;DHT22;65740;52.464;13.446;2022-12-29T15:39:58;17.80;49.30
76789;DHT22;65740;52.464;13.446;2022-12-29T15:45:30;17.80;49.20
76789;DHT22;65740;52.464;13.446;2022-12-29T15:47:58;17.80;49.20
76789;DHT22;65740;52.464;13.446;2022-12-29T15:50:30;17.90;49.40
76789;DHT22;65740;52.464;13.446;2022-12-29T15:52:57;17.80;49.30
76789;DHT22;65740;52.464;13.446;2022-12-29T15:55:33;17.80;49.20
76789;DHT22;65740;52.464;13.446;2022-12-29T15:58:02;17.80;49.20
76789;DHT22;65740;52.464;13.446;2022-12-29T16:00:31;17.90;49.90
76789;DHT22;65740;52.464;13.446;2022-12-29T16:03:00;17.90;49.30
76789;DHT22;65740;52.464;13.446;2022-12-29T16:05:38;17.90;49.30
76789;DHT22;65740;52.464;13.446;2022-12-29T16:10:49;17.80;49.20
76789;DHT22;65740;52.464;13.446;2022-12-29T16:13:38;17.90;49.20
76789;DHT22;65740;52.464;13.446;2022-12-29T16:16:13;17.80;49.20
76789;DHT22;65740;52.464;13.446;2022-12-29T16:18:41;17.90;49.20
76789;DHT22;65740;52.464;13.446;2022-12-29T16:21:16;17.90;49.30
76789;DHT22;65740;52.464;13.446;2022-12-29T16:23:48;17.90;49.30
76789;DHT22;65740;52.464;13.446;2022-12-29T16:26:19;17.90;49.20
76789;DHT22;65740;52.464;13.446;2022-12-29T16:28:50;17.90;49.20
76789;DHT22;65740;52.464;13.446;2022-12-29T16:31:55;17.90;49.20
76789;DHT22;65740;52.464;13.446;2022-12-29T16:34:27;17.80;49.20
76789;DHT22;65740;52.464;13.446;2022-12-29T16:37:01;17.80;49.20
76789;DHT22;65740;52.464;13.446;2022-12-29T16:39:34;17.90;49.20
76789;DHT22;65740;52.464;13.446;2022-12-29T16:42:00;17.90;49.20
76789;DHT22;65740;52.464;13.446;2022-12-29T16:44:30;17.90;49.20
76789;DHT22;65740;52.464;13.446;2022-12-29T16:49:39;17.90;49.20
76789;DHT22;65740;52.464;13.446;2022-12-29T16:52:13;17.80;49.20
76789;DHT22;65740;52.464;13.446;2022-12-29T16:54:42;17.90;49.20
76789;DHT22;65740;52.464;13.446;2022-12-29T16:57:12;17.80;49.20
76789;DHT22;65740;52.464;13.446;2022-12-29T16:59:40;17.80;49.20
76789;DHT22;65740;52.464;13.446;2022-12-29T17:02:19;17.80;49.20
76789;DHT22;65740;52.464;13.446;2022-12-29T17:04:45;17.80;49.20
76789;DHT22;65740;52.464;13.446;2022-12-29T17:07:19;17.90;49.30
76789;DHT22;65740;52.464;13.446;2022-12-29T17:09:44;17.80;49.20
76789;DHT22;65740;52.464;13.446;2022-12-29T17:12:17;17.80;49.20
76789;DHT22;65740;52.464;13.446;2022-12-29T17:17:18;17.70;49.10
76789;DHT22;65740;52.464;13.446;2022-12-29T17:19:47;17.70;49.10
76789;DHT22;65740;52.464;13.446;2022-12-29T17:22:22;17.70;49.10
76789;DHT22;65740;52.464;13.446;2022-12-29T17:24:50;17.60;49.00
76789;DHT22;65740;52.464;13.446;2022-12-29T17:27:35;17.70;49.10
76789;DHT22;65740;52.464;13.446;2022-12-29T17:30:15;17.60;49.10
76789;DHT22;65740;52.464;13.446;2022-12-29T17:32:45;17.60;49.10
76789;DHT22;65740;52.464;13.446;2022-12-29T17:35:15;17.50;49.00
76789;DHT22;65740;52.464;13.446;2022-12-29T17:37:41;17.50;49.10
76789;DHT22;65740;52.464;13.446;2022-12-29T17:40:09;17.50;49.10
76789;DHT22;65740;52.464;13.446;2022-12-29T17:42:43;17.50;49.20
76789;DHT22;65740;52.464;13.446;2022-12-29T17:45:17;17.40;49.20
76789;DHT22;65740;52.464;13.446;2022-12-29T17:47:44;17.40;49.10
76789;DHT22;65740;52.464;13.446;2022-12-29T17:50:16;17.40;49.20
76789;DHT22;65740;52.464;13.446;2022-12-29T17:52:43;17.40;49.10
76789;DHT22;65740;52.464;13.446;2022-12-29T17:55:16;17.40;49.30
76789;DHT22;65740;52.464;13.446;2022-12-29T17:57:43;17.40;49.30
76789;DHT22;65740;52.464;13.446;2022-12-29T18:00:23;17.30;49.20
76789;DHT22;65740;52.464;13.446;2022-12-29T18:02:52;17.30;49.30
76789;DHT22;65740;52.464;13.446;2022-12-29T18:07:51;17.30;49.20
76789;DHT22;65740;52.464;13.446;2022-12-29T18:10:17;17.30;49.20
76789;DHT22;65740;52.464;13.446;2022-12-29T18:12:45;17.30;49.30
76789;DHT22;65740;52.464;13.446;2022-12-29T18:15:23;17.20;49.10
76789;DHT22;65740;52.464;13.446;2022-12-29T18:17:54;17.20;49.20
76789;DHT22;65740;52.464;13.446;2022-12-29T18:20:22;17.20;49.10
76789;DHT22;65740;52.464;13.446;2022-12-29T18:22:48;17.20;49.20
76789;DHT22;65740;52.464;13.446;2022-12-29T18:25:21;17.10;49.10
76789;DHT22;65740;52.464;13.446;2022-12-29T18:27:48;17.10;49.00
76789;DHT22;65740;52.464;13.446;2022-12-29T18:30:15;17.10;49.20